Time;durP1;ratioP1;P1;durP2;ratioP2;P2;SDS_P1;SDS_P2;PMS_P1;PMS_P2;Temp;Humidity;BMP_temperature;BMP_pressure;BME280_temperature;BME280_humidity;BME280_pressure;Samples;Min_cycle;Max_cycle;Signal;HPM_P1;HPM_P2
2024/02/10 00:00:25;;;;;;;0.77;0.77;;;;;;;-3.53;71.45;99082.63;5065662;28;20021;-73
2024/02/10 00:02:51;;;;;;;1.02;0.95;;;;;;;-3.55;71.88;99094.44;5065299;28;20081;-70
2024/02/10 00:05:16;;;;;;;0.80;0.80;;;;;;;-3.72;72.75;99093.09;5065493;28;20028;-71
2024/02/10 00:07:46;;;;;;;0.80;0.80;;;;;;;-3.66;72.84;99103.41;5065439;28;20059;-69
2024/02/10 00:10:12;;;;;;;0.60;0.60;;;;;;;-3.70;72.86;99078.75;5047025;28;20029;-72
2024/02/10 00:12:40;;;;;;;0.50;0.50;;;;;;;-3.58;72.55;99094.34;5065155;28;20025;-68
2024/02/10 00:15:07;;;;;;;0.70;0.70;;;;;;;-3.78;73.02;99074.34;5065270;28;20020;-70
2024/02/10 00:17:32;;;;;;;1.58;0.85;;;;;;;-3.53;72.54;99075.03;5065276;28;20040;-72
2024/02/10 00:19:59;;;;;;;0.68;0.68;;;;;;;-3.69;73.04;99088.13;5047287;28;20025;-70
2024/02/10 00:22:27;;;;;;;0.60;0.60;;;;;;;-3.60;72.56;99065.53;5047180;28;20029;-72
2024/02/10 00:24:52;;;;;;;0.70;0.70;;;;;;;-3.56;72.60;99061.41;5065067;28;20031;-72
2024/02/10 00:27:17;;;;;;;0.60;0.60;;;;;;;-3.63;72.86;99075.59;5065079;28;20056;-70
2024/02/10 00:29:45;;;;;;;1.73;1.63;;;;;;;-3.59;72.61;99071.47;5047004;28;20032;-70
2024/02/10 00:32:10;;;;;;;0.60;0.60;;;;;;;-3.71;72.93;99062.72;5065203;28;20021;-71
2024/02/10 00:34:39;;;;;;;0.70;0.70;;;;;;;-3.66;72.85;99076.34;5065001;28;20090;-71
2024/02/10 00:37:05;;;;;;;0.82;0.82;;;;;;;-3.70;73.05;99091.44;5064724;28;20036;-70
2024/02/10 00:39:31;;;;;;;0.50;0.50;;;;;;;-3.69;72.98;99086.41;5047095;28;20097;-70
2024/02/10 00:41:56;;;;;;;0.98;0.98;;;;;;;-3.68;73.29;99072.94;5046459;28;20052;-71
2024/02/10 00:44:23;;;;;;;0.98;0.93;;;;;;;-3.59;72.68;99096.84;5064839;28;20031;-70
2024/02/10 00:46:49;;;;;;;0.70;0.70;;;;;;;-3.70;73.03;99066.09;5064742;28;20020;-72
2024/02/10 00:49:14;;;;;;;1.35;1.25;;;;;;;-3.71;73.36;99070.31;5064782;28;20028;-71
2024/02/10 00:51:40;;;;;;;0.98;0.73;;;;;;;-3.78;73.83;99076.03;5064784;28;20056;-70
2024/02/10 00:54:05;;;;;;;0.80;0.80;;;;;;;-3.60;74.00;99090.91;5064636;28;20029;-69
2024/02/10 00:56:30;;;;;;;0.82;0.82;;;;;;;-3.57;73.28;99093.53;5046755;28;20074;-72
2024/02/10 00:58:56;;;;;;;0.70;0.70;;;;;;;-3.69;73.54;99094.03;5065098;28;20074;-71
2024/02/10 01:01:22;;;;;;;0.82;0.82;;;;;;;-3.68;73.79;99108.44;5068779;28;20044;-70
2024/02/10 01:03:48;;;;;;;1.75;1.38;;;;;;;-3.75;74.08;99076.09;5068910;28;20021;-71
2024/02/10 01:06:15;;;;;;;0.60;0.60;;;;;;;-3.83;74.56;99080.13;5050967;28;20033;-72
2024/02/10 01:08:48;;;;;;;2.13;2.03;;;;;;;-3.92;74.81;99078.16;5050530;28;20055;-70
2024/02/10 01:11:18;;;;;;;2.30;2.10;;;;;;;-3.72;74.66;99080.41;5068488;28;20028;-73
2024/02/10 01:13:45;;;;;;;0.70;0.70;;;;;;;-3.82;74.65;99071.69;5050627;28;20032;-71
2024/02/10 01:16:15;;;;;;;0.65;0.65;;;;;;;-3.94;75.20;99082.31;5068409;28;20035;-69
2024/02/10 01:18:41;;;;;;;1.25;1.15;;;;;;;-3.92;75.20;99094.25;5068620;28;20044;-70
2024/02/10 01:21:10;;;;;;;0.85;0.85;;;;;;;-3.82;75.10;99092.84;5068265;28;20028;-70
2024/02/10 01:23:42;;;;;;;0.75;0.75;;;;;;;-3.72;74.87;99093.94;5068484;28;20032;-71
2024/02/10 01:26:12;;;;;;;0.90;0.90;;;;;;;-3.69;74.59;99086.41;5068813;28;20096;-70
2024/02/10 01:28:37;;;;;;;1.30;1.23;;;;;;;-3.88;74.78;99067.28;5068164;28;20532;-70
2024/02/10 01:31:06;;;;;;;0.60;0.60;;;;;;;-4.01;75.31;99074.53;5067826;28;20104;-70
2024/02/10 01:33:31;;;;;;;0.75;0.73;;;;;;;-3.90;74.97;99101.91;5068415;28;20037;-70
2024/02/10 01:35:59;;;;;;;0.75;0.75;;;;;;;-3.84;74.89;99117.28;5049923;28;20144;-70
2024/02/10 01:38:24;;;;;;;0.60;0.60;;;;;;;-3.87;75.27;99084.25;5067950;28;20028;-70
2024/02/10 01:40:51;;;;;;;0.60;0.60;;;;;;;-3.81;74.89;99093.69;5050081;28;20025;-70
2024/02/10 01:43:16;;;;;;;0.70;0.70;;;;;;;-3.84;74.90;99071.66;5067949;28;20031;-70
2024/02/10 01:45:42;;;;;;;1.58;1.48;;;;;;;-3.83;75.29;99134.22;5068047;28;20025;-70
2024/02/10 01:48:08;;;;;;;0.68;0.68;;;;;;;-3.76;74.69;99093.03;5067923;28;20035;-71
2024/02/10 01:50:37;;;;;;;1.73;1.63;;;;;;;-3.75;74.97;99121.75;5067756;28;20036;-69
2024/02/10 01:53:04;;;;;;;4.97;1.40;;;;;;;-3.57;74.18;99103.66;5067925;28;20487;-70
2024/02/10 01:55:30;;;;;;;1.02;0.93;;;;;;;-3.69;74.43;99098.25;5049376;28;20102;-70
2024/02/10 01:58:02;;;;;;;0.60;0.60;;;;;;;-3.81;74.82;99089.47;5067393;28;20028;-70
2024/02/10 02:00:28;;;;;;;1.02;1.02;;;;;;;-3.69;75.13;99099.09;5067255;28;20044;-71
2024/02/10 02:02:59;;;;;;;2.47;2.28;;;;;;;-3.60;74.16;99095.97;5066319;28;20036;-71
2024/02/10 02:05:26;;;;;;;1.13;1.13;;;;;;;-3.68;74.45;99088.16;5067536;28;20016;-71
2024/02/10 02:07:55;;;;;;;0.70;0.70;;;;;;;-3.82;74.86;99092.84;5067824;28;20036;-69
2024/02/10 02:10:21;;;;;;;0.60;0.60;;;;;;;-3.81;75.17;99086.06;5066788;28;20048;-69
2024/02/10 02:12:50;;;;;;;0.90;0.90;;;;;;;-3.86;75.38;99094.44;5067282;28;20075;-69
2024/02/10 02:15:19;;;;;;;0.70;0.70;;;;;;;-3.80;75.33;99111.47;5067454;28;20018;-70
2024/02/10 02:17:45;;;;;;;0.63;0.63;;;;;;;-3.84;75.27;99091.94;5067407;28;20032;-69
2024/02/10 02:20:11;;;;;;;0.60;0.60;;;;;;;-3.86;75.61;99098.63;5067353;28;20021;-69
2024/02/10 02:22:36;;;;;;;0.73;0.73;;;;;;;-3.88;75.60;99079.97;5067208;28;20027;-69
2024/02/10 02:25:03;;;;;;;1.00;0.90;;;;;;;-3.88;75.93;99096.06;5067243;28;20032;-71
2024/02/10 02:27:28;;;;;;;1.25;1.15;;;;;;;-3.72;75.63;99083.78;5067079;28;20028;-69
2024/02/10 02:29:54;;;;;;;0.60;0.60;;;;;;;-3.76;75.91;99115.84;5067117;28;20169;-71
2024/02/10 02:32:20;;;;;;;0.90;0.90;;;;;;;-3.76;75.74;99074.41;5067021;28;20031;-69
2024/02/10 02:34:47;;;;;;;1.67;1.58;;;;;;;-3.83;76.11;99097.88;5067273;28;20084;-71
2024/02/10 02:37:13;;;;;;;0.60;0.60;;;;;;;-3.86;76.17;99085.94;5066828;28;20084;-69
2024/02/10 02:39:39;;;;;;;1.05;1.05;;;;;;;-3.86;76.68;99085.94;5049007;28;20035;-71
2024/02/10 02:42:07;;;;;;;1.00;1.00;;;;;;;-3.91;76.82;99065.53;5066973;28;20103;-70
2024/02/10 02:44:33;;;;;;;0.60;0.60;;;;;;;-4.02;77.36;99082.97;5066541;28;20021;-69
2024/02/10 02:47:04;;;;;;;0.60;0.60;;;;;;;-4.05;77.57;99062.59;5066765;28;20021;-70
2024/02/10 02:49:30;;;;;;;1.90;1.77;;;;;;;-3.73;76.93;99066.88;5066800;28;20458;-70
2024/02/10 02:51:55;;;;;;;2.28;2.17;;;;;;;-3.65;76.70;99067.06;5066471;28;20043;-70
2024/02/10 02:54:21;;;;;;;0.70;0.70;;;;;;;-3.95;77.26;99063.75;5066411;28;20051;-70
2024/02/10 02:56:55;;;;;;;0.70;0.70;;;;;;;-3.97;77.86;99065.34;5066045;28;20028;-70
2024/02/10 02:59:21;;;;;;;1.25;0.90;;;;;;;-3.86;77.27;99064.00;5066508;28;20025;-69
2024/02/10 03:01:50;;;;;;;1.08;0.90;;;;;;;-3.74;77.10;99078.69;5066445;28;20021;-70
2024/02/10 03:04:16;;;;;;;1.80;1.70;;;;;;;-3.99;77.70;99054.31;5048287;28;20028;-69
2024/02/10 03:06:43;;;;;;;0.80;0.80;;;;;;;-3.93;78.04;99069.69;5066308;28;20370;-69
2024/02/10 03:09:09;;;;;;;0.50;0.50;;;;;;;-3.86;77.58;99064.00;5048291;28;20104;-69
2024/02/10 03:11:36;;;;;;;0.60;0.60;;;;;;;-3.81;77.19;99069.19;5065946;28;20441;-70
2024/02/10 03:14:02;;;;;;;1.05;0.95;;;;;;;-3.74;77.13;99080.38;5066101;28;20029;-69
2024/02/10 03:16:33;;;;;;;1.35;1.25;;;;;;;-3.81;77.24;99060.72;5066138;28;20024;-69
2024/02/10 03:19:01;;;;;;;0.90;0.90;;;;;;;-3.92;77.47;99048.59;5048300;28;20037;-69
2024/02/10 03:21:27;;;;;;;2.50;1.33;;;;;;;-3.82;77.50;99049.72;5065290;28;20020;-70
2024/02/10 03:23:52;;;;;;;0.93;0.90;;;;;;;-3.76;77.49;99065.13;5066043;28;20108;-70
2024/02/10 03:26:18;;;;;;;0.75;0.75;;;;;;;-3.80;76.96;99058.22;5065885;28;20024;-69
2024/02/10 03:28:43;;;;;;;1.02;1.00;;;;;;;-3.88;77.28;99045.34;5065730;28;20116;-70
2024/02/10 03:31:08;;;;;;;0.70;0.70;;;;;;;-3.76;77.14;99038.88;5047767;28;20029;-69
2024/02/10 03:33:34;;;;;;;2.47;1.40;;;;;;;-3.74;76.92;99057.56;5065767;28;20013;-68
2024/02/10 03:36:00;;;;;;;2.30;1.27;;;;;;;-3.64;76.97;99049.34;5065866;28;20029;-70
2024/02/10 03:38:27;;;;;;;0.68;0.68;;;;;;;-3.71;76.96;99052.56;5065614;28;20055;-70
2024/02/10 03:40:52;;;;;;;1.80;0.70;;;;;;;-3.74;77.30;99045.72;5047847;28;20272;-70
2024/02/10 03:43:26;;;;;;;0.65;0.65;;;;;;;-3.76;77.42;99046.50;5065159;28;20029;-71
2024/02/10 03:45:54;;;;;;;0.68;0.68;;;;;;;-3.84;77.55;99047.94;5065542;28;20029;-69
2024/02/10 03:48:19;;;;;;;1.65;1.60;;;;;;;-3.84;77.64;99026.00;5065799;28;20079;-70
2024/02/10 03:50:45;;;;;;;0.70;0.70;;;;;;;-3.82;78.00;99054.81;5065516;28;20025;-70
2024/02/10 03:53:10;;;;;;;1.15;0.80;;;;;;;-3.79;77.60;99049.81;5047443;28;20078;-70
2024/02/10 03:55:38;;;;;;;1.92;1.83;;;;;;;-3.56;76.61;99047.03;5065143;28;20402;-70
2024/02/10 03:58:04;;;;;;;0.70;0.70;;;;;;;-3.67;76.61;99039.13;5065130;28;20024;-68
2024/02/10 04:00:36;;;;;;;1.23;0.80;;;;;;;-3.80;77.42;99050.63;5047764;28;20025;-68
2024/02/10 04:03:01;;;;;;;1.08;1.02;;;;;;;-3.83;77.57;99022.63;5047199;28;20028;-68
2024/02/10 04:05:33;;;;;;;0.60;0.60;;;;;;;-3.80;77.50;99063.28;5065202;28;20084;-68
2024/02/10 04:07:58;;;;;;;;;;;;;;;-3.72;77.42;99039.84;5047842;28;20021;-68
2024/02/10 04:10:23;;;;;;;1.17;1.08;;;;;;;-3.47;76.43;99040.47;5065290;28;19930;-69
2024/02/10 04:12:49;;;;;;;1.13;1.13;;;;;;;-3.66;76.66;99066.22;5065065;28;20021;-68
2024/02/10 04:15:14;;;;;;;0.80;0.80;;;;;;;-3.59;76.63;99044.41;5065160;28;20126;-69
2024/02/10 04:17:40;;;;;;;0.73;0.73;;;;;;;-3.70;76.71;99048.31;5046898;28;20028;-68
2024/02/10 04:20:10;;;;;;;0.60;0.60;;;;;;;-3.67;77.10;99038.25;5047046;28;20047;-70
2024/02/10 04:22:39;;;;;;;0.80;0.80;;;;;;;-3.70;77.19;99043.25;5065219;28;20088;-69
2024/02/10 04:25:12;;;;;;;0.60;0.60;;;;;;;-3.50;76.62;99031.97;5065742;28;20050;-70
2024/02/10 04:27:40;;;;;;;1.15;1.05;;;;;;;-3.60;76.61;99032.56;5065971;28;20032;-69
2024/02/10 04:30:06;;;;;;;0.60;0.60;;;;;;;-3.54;76.17;99016.63;5065591;28;20036;-69
2024/02/10 04:32:32;;;;;;;1.50;0.95;;;;;;;-3.65;76.79;99034.09;5046896;28;20021;-69
2024/02/10 04:34:57;;;;;;;0.60;0.60;;;;;;;-3.69;76.99;99035.69;5064985;28;20020;-69
2024/02/10 04:37:23;;;;;;;0.50;0.50;;;;;;;-3.74;77.08;99030.50;5064785;28;20025;-68
2024/02/10 04:39:49;;;;;;;0.88;0.88;;;;;;;-3.55;76.11;99033.53;5064840;28;20028;-70
2024/02/10 04:42:14;;;;;;;0.60;0.60;;;;;;;-3.59;76.44;99021.56;5046765;28;20021;-70
2024/02/10 04:44:40;;;;;;;1.50;0.98;;;;;;;-3.55;76.53;99038.63;5064534;28;20465;-69
2024/02/10 04:47:05;;;;;;;0.70;0.70;;;;;;;-3.50;76.07;99041.28;5064821;28;20025;-69
2024/02/10 04:49:33;;;;;;;0.65;0.65;;;;;;;-3.55;76.36;99023.41;5064790;28;20028;-69
2024/02/10 04:51:58;;;;;;;0.60;0.60;;;;;;;-3.63;76.66;99035.88;5064549;28;20017;-69
2024/02/10 04:54:24;;;;;;;0.50;0.50;;;;;;;-3.77;76.94;99021.97;5064426;28;20136;-69
2024/02/10 04:56:51;;;;;;;0.70;0.70;;;;;;;-3.60;76.94;99047.78;5064832;28;20094;-69
2024/02/10 04:59:25;;;;;;;1.13;1.13;;;;;;;-3.59;76.62;99013.97;5064549;28;20021;-68
2024/02/10 05:01:51;;;;;;;0.73;0.63;;;;;;;-3.63;76.91;99032.47;5064946;28;20108;-68
2024/02/10 05:04:16;;;;;;;2.28;1.95;;;;;;;-3.54;76.49;99027.63;5064520;28;20024;-69
2024/02/10 05:06:44;;;;;;;1.48;1.38;;;;;;;-3.55;76.74;99048.75;5064395;28;20345;-70
2024/02/10 05:09:13;;;;;;;0.60;0.60;;;;;;;-3.60;76.59;99014.78;5064460;28;20086;-69
2024/02/10 05:11:40;;;;;;;0.60;0.60;;;;;;;-3.57;76.66;99016.53;5046347;28;20025;-69
2024/02/10 05:14:08;;;;;;;1.45;1.35;;;;;;;-3.54;76.45;99025.09;5046408;28;20025;-70
2024/02/10 05:16:33;;;;;;;3.60;0.75;;;;;;;-3.71;76.93;99037.34;5046523;28;20047;-70
2024/02/10 05:19:00;;;;;;;0.60;0.60;;;;;;;-3.53;76.65;99016.66;5046384;28;20466;-69
2024/02/10 05:21:28;;;;;;;1.00;0.80;;;;;;;-3.60;77.06;99042.69;5064475;28;20047;-70
2024/02/10 05:24:07;;;;;;;0.60;0.60;;;;;;;-3.62;77.02;99024.03;5064287;28;20028;-70
2024/02/10 05:26:38;;;;;;;1.20;0.82;;;;;;;-3.59;76.98;99021.56;5046140;28;20087;-68
2024/02/10 05:29:06;;;;;;;1.20;1.20;;;;;;;-3.68;77.18;99036.56;5064412;28;20021;-69
2024/02/10 05:31:34;;;;;;;0.50;0.50;;;;;;;-3.59;77.32;99046.94;5064206;28;20036;-69
2024/02/10 05:34:00;;;;;;;0.60;0.60;;;;;;;-3.59;77.28;99052.03;5064329;28;20075;-70
2024/02/10 05:36:26;;;;;;;9.43;0.98;;;;;;;-3.69;77.33;99025.53;5046210;28;20025;-68
2024/02/10 05:38:51;;;;;;;0.80;0.80;;;;;;;-3.71;77.58;99036.47;5064136;28;20036;-68
2024/02/10 05:41:17;;;;;;;0.88;0.88;;;;;;;-3.69;77.37;99040.75;5046158;28;20029;-69
2024/02/10 05:43:43;;;;;;;1.27;1.20;;;;;;;-3.64;77.01;99033.28;5046060;28;20502;-68
2024/02/10 05:46:09;;;;;;;0.60;0.60;;;;;;;-3.45;76.73;99051.53;5048489;28;20033;-71
2024/02/10 05:48:35;;;;;;;0.70;0.70;;;;;;;-3.57;76.63;99034.31;5067866;28;20491;-68
2024/02/10 05:51:01;;;;;;;0.80;0.80;;;;;;;-3.60;77.14;99055.38;5050047;28;20017;-70
2024/02/10 05:53:27;;;;;;;0.85;0.85;;;;;;;-3.60;77.28;99057.91;5067603;28;20029;-69
2024/02/10 05:55:53;;;;;;;0.70;0.70;;;;;;;-3.61;77.09;99054.50;5067581;28;20060;-67
2024/02/10 05:58:19;;;;;;;1.10;1.10;;;;;;;-3.53;77.01;99044.56;5049515;28;20108;-69
2024/02/10 06:00:44;;;;;;;0.60;0.60;;;;;;;-3.52;76.73;99043.78;5066724;28;20088;-69
2024/02/10 06:03:10;;;;;;;0.60;0.60;;;;;;;-3.55;76.76;99061.44;5066727;28;20092;-69
2024/02/10 06:05:36;;;;;;;0.80;0.80;;;;;;;-3.64;77.20;99073.84;5067566;28;20094;-68
2024/02/10 06:08:02;;;;;;;0.65;0.65;;;;;;;-3.78;77.16;99028.69;5067524;28;20466;-69
2024/02/10 06:10:28;;;;;;;0.52;0.52;;;;;;;-3.60;77.08;99070.59;5067575;28;20017;-68
2024/02/10 06:12:53;;;;;;;0.50;0.50;;;;;;;-3.59;77.02;99051.19;5049176;28;20028;-69
2024/02/10 06:15:20;;;;;;;0.60;0.60;;;;;;;-3.53;76.75;99062.34;5049222;28;20048;-69
2024/02/10 06:17:49;;;;;;;1.75;1.58;;;;;;;-3.44;76.57;99061.75;5049235;28;20017;-70
2024/02/10 06:20:14;;;;;;;0.82;0.82;;;;;;;-3.61;76.92;99064.66;5049392;28;20025;-69
2024/02/10 06:22:50;;;;;;;8.77;1.50;;;;;;;-3.53;76.69;99066.56;5067399;28;20446;-69
2024/02/10 06:25:28;;;;;;;0.80;0.80;;;;;;;-3.56;76.42;99067.31;5067281;28;20021;-69
2024/02/10 06:27:55;;;;;;;2.53;0.82;;;;;;;-3.55;76.63;99070.72;5067005;28;20025;-71
2024/02/10 06:30:22;;;;;;;0.85;0.85;;;;;;;-3.69;77.18;99070.34;5049051;28;20016;-70
2024/02/10 06:32:48;;;;;;;0.90;0.90;;;;;;;-3.60;77.06;99075.69;5066857;28;20025;-68
2024/02/10 06:35:14;;;;;;;2.05;1.40;;;;;;;-3.59;76.81;99076.56;5066998;28;20027;-68
2024/02/10 06:37:46;;;;;;;1.15;0.70;;;;;;;-3.58;76.79;99079.13;5049051;28;20017;-68
2024/02/10 06:40:14;;;;;;;1.67;1.58;;;;;;;-3.54;76.91;99098.69;5049226;28;20055;-71
2024/02/10 06:42:39;;;;;;;1.40;1.30;;;;;;;-3.56;76.74;99092.69;5066986;28;20025;-68
2024/02/10 06:45:11;;;;;;;0.82;0.82;;;;;;;-3.66;76.94;99081.44;5047429;28;20485;-69
2024/02/10 06:47:37;;;;;;;0.63;0.63;;;;;;;-3.68;77.25;99080.53;5066016;28;20062;-70
2024/02/10 06:50:03;;;;;;;0.57;0.57;;;;;;;-3.59;77.15;99090.06;5066859;28;20021;-70
2024/02/10 06:52:34;;;;;;;0.60;0.60;;;;;;;-3.67;77.14;99081.38;5066692;28;20021;-70
2024/02/10 06:55:03;;;;;;;0.50;0.50;;;;;;;-3.69;77.27;99080.50;5066534;28;20105;-69
2024/02/10 06:57:29;;;;;;;1.55;1.15;;;;;;;-3.62;77.21;99112.81;5066316;28;20363;-70
2024/02/10 06:59:54;;;;;;;1.00;1.00;;;;;;;-3.62;76.96;99112.81;5066644;28;20028;-71
2024/02/10 07:02:20;;;;;;;0.70;0.70;;;;;;;-3.69;77.22;99086.41;5066584;28;20013;-70
2024/02/10 07:04:52;;;;;;;0.80;0.80;;;;;;;-3.63;77.09;99083.22;5066630;28;20075;-72
2024/02/10 07:07:18;;;;;;;0.70;0.70;;;;;;;-3.71;77.53;99100.75;5048289;28;20059;-70
2024/02/10 07:09:44;;;;;;;1.00;1.00;;;;;;;-3.71;77.49;99098.22;5048172;28;20024;-70
2024/02/10 07:12:09;;;;;;;2.35;2.17;;;;;;;-3.67;77.68;99094.94;5066107;28;20099;-72
2024/02/10 07:14:35;;;;;;;0.60;0.60;;;;;;;-3.71;77.76;99093.16;5048161;28;20358;-70
2024/02/10 07:17:01;;;;;;;0.68;0.68;;;;;;;-3.66;77.75;99105.97;5067580;28;20029;-71
2024/02/10 07:19:29;;;;;;;0.60;0.60;;;;;;;-3.82;78.06;99080.16;5048151;28;20374;-70
2024/02/10 07:21:58;;;;;;;0.77;0.77;;;;;;;-3.77;78.30;99115.81;5047938;28;20013;-70
2024/02/10 07:24:24;;;;;;;1.13;1.02;;;;;;;-3.77;78.30;99096.34;5048260;28;20025;-70
2024/02/10 07:26:50;;;;;;;0.60;0.60;;;;;;;-3.81;78.61;99104.69;5066035;28;20025;-68
2024/02/10 07:29:16;;;;;;;0.60;0.60;;;;;;;-3.82;78.66;99110.59;5065772;28;20035;-69
2024/02/10 07:31:44;;;;;;;0.70;0.70;;;;;;;-3.83;78.52;99108.88;5065798;28;20108;-70
2024/02/10 07:34:09;;;;;;;0.60;0.60;;;;;;;-3.92;78.48;99098.47;5047798;28;20047;-71
2024/02/10 07:36:35;;;;;;;0.68;0.68;;;;;;;-3.92;78.63;99113.66;5065989;28;20024;-70
2024/02/10 07:39:07;;;;;;;1.10;1.00;;;;;;;-3.92;78.59;99131.41;5047887;28;20026;-70
2024/02/10 07:41:35;;;;;;;2.33;2.13;;;;;;;-3.96;78.31;99117.78;5065576;28;20051;-71
2024/02/10 07:44:02;;;;;;;0.68;0.68;;;;;;;-4.09;78.58;99111.50;5047659;28;20130;-71
2024/02/10 07:46:32;;;;;;;0.60;0.60;;;;;;;-3.98;78.38;99120.28;5047577;28;20029;-71
2024/02/10 07:49:01;;;;;;;0.60;0.60;;;;;;;-4.10;78.71;99112.31;5065598;28;20025;-71
2024/02/10 07:51:29;;;;;;;0.63;0.63;;;;;;;-4.18;79.04;99131.50;5065549;28;20021;-71
2024/02/10 07:53:59;;;;;;;0.77;0.77;;;;;;;-4.14;79.02;99110.50;5065790;28;20230;-71
2024/02/10 07:56:28;;;;;;;0.60;0.60;;;;;;;-4.25;79.36;99121.16;5047796;28;20128;-71
2024/02/10 07:58:58;;;;;;;0.70;0.70;;;;;;;-4.12;79.35;99135.06;5065284;28;20036;-71
2024/02/10 08:01:26;;;;;;;0.70;0.70;;;;;;;-4.05;78.72;99118.38;5047604;28;20025;-71
2024/02/10 08:03:56;;;;;;;1.98;1.88;;;;;;;-4.18;79.22;99111.22;5065479;28;20029;-70
2024/02/10 08:06:26;;;;;;;0.70;0.70;;;;;;;-4.17;79.50;99126.47;5065306;28;20028;-70
2024/02/10 08:08:57;;;;;;;1.00;1.00;;;;;;;-4.14;79.47;99136.69;5064753;28;20025;-70
2024/02/10 08:11:24;;;;;;;0.77;0.77;;;;;;;-4.09;79.28;99131.78;5047449;28;20543;-71
2024/02/10 08:13:51;;;;;;;1.50;1.40;;;;;;;-4.05;78.95;99133.59;5065236;28;20549;-70
2024/02/10 08:16:18;;;;;;;1.00;0.93;;;;;;;-4.02;78.77;99158.16;5065164;28;20164;-69
2024/02/10 08:18:43;;;;;;;0.70;0.70;;;;;;;-4.04;78.96;99117.56;5065336;28;20077;-72
2024/02/10 08:21:09;;;;;;;0.98;0.98;;;;;;;-4.03;79.04;99133.63;5065078;28;20037;-68
2024/02/10 08:23:38;;;;;;;0.80;0.80;;;;;;;-4.02;79.29;99137.88;5047063;28;20055;-70
2024/02/10 08:26:05;;;;;;;0.57;0.57;;;;;;;-3.92;78.73;99136.50;5065155;28;20071;-71
2024/02/10 08:28:30;;;;;;;0.82;0.82;;;;;;;-3.90;78.54;99127.25;5064817;28;20385;-69
2024/02/10 08:30:57;;;;;;;0.82;0.82;;;;;;;-3.90;78.22;99129.78;5046997;28;20032;-70
2024/02/10 08:33:23;;;;;;;0.60;0.60;;;;;;;-3.89;78.28;99134.91;5064962;28;20025;-71
2024/02/10 08:35:49;;;;;;;0.73;0.73;;;;;;;-4.03;78.61;99126.91;5064688;28;20115;-71
2024/02/10 08:38:15;;;;;;;0.85;0.85;;;;;;;-3.94;78.18;99123.75;5046699;28;20381;-69
2024/02/10 08:40:40;;;;;;;0.70;0.70;;;;;;;-3.92;78.34;99146.63;5046986;28;20040;-69
2024/02/10 08:43:08;;;;;;;1.08;1.08;;;;;;;-4.00;78.29;99119.38;5064898;28;20021;-70
2024/02/10 08:45:34;;;;;;;0.60;0.60;;;;;;;-3.89;78.24;99126.44;5046628;28;20032;-72
2024/02/10 08:48:02;;;;;;;2.03;1.92;;;;;;;-3.75;76.93;99127.69;5046856;28;20017;-70
2024/02/10 08:50:28;;;;;;;2.08;1.15;;;;;;;-4.01;77.01;99097.38;5064569;28;20097;-71
2024/02/10 08:52:56;;;;;;;0.82;0.82;;;;;;;-3.84;77.18;99144.31;5064832;28;20017;-72
2024/02/10 08:55:26;;;;;;;1.25;0.70;;;;;;;-3.76;76.89;99125.13;5046505;28;20600;-70
2024/02/10 08:57:55;;;;;;;0.93;0.80;;;;;;;-3.87;77.12;99135.84;5046568;28;20128;-70
2024/02/10 09:00:21;;;;;;;0.68;0.68;;;;;;;-3.88;77.24;99130.69;5046590;28;20237;-70
2024/02/10 09:02:46;;;;;;;0.93;0.93;;;;;;;-4.16;77.07;99074.09;5064745;28;20017;-70
2024/02/10 09:05:12;;;;;;;0.70;0.70;;;;;;;-3.84;77.16;99124.91;5064645;28;20464;-70
2024/02/10 09:07:38;;;;;;;0.60;0.60;;;;;;;-3.82;77.00;99128.34;5064555;28;20021;-72
2024/02/10 09:10:04;;;;;;;0.65;0.65;;;;;;;-3.75;76.67;99127.69;5064581;28;20032;-72
2024/02/10 09:12:30;;;;;;;0.60;0.60;;;;;;;-3.65;76.21;99140.66;5064702;28;20048;-72
2024/02/10 09:14:55;;;;;;;5.03;1.02;;;;;;;-3.65;76.10;99131.38;5064178;28;20021;-71
2024/02/10 09:17:23;;;;;;;1.67;1.58;;;;;;;-3.68;76.29;99135.50;5064276;28;20381;-72
2024/02/10 09:19:48;;;;;;;0.60;0.60;;;;;;;-3.62;75.80;99138.19;5064695;28;20021;-71
2024/02/10 09:22:14;;;;;;;0.68;0.68;;;;;;;-3.67;76.05;99139.72;5068339;28;20023;-71
2024/02/10 09:24:39;;;;;;;0.60;0.60;;;;;;;-3.70;75.64;99142.19;5050393;28;20025;-71
2024/02/10 09:27:08;;;;;;;1.73;1.63;;;;;;;-3.69;75.73;99129.53;5068228;28;20025;-71
2024/02/10 09:29:34;;;;;;;0.50;0.50;;;;;;;-3.63;75.39;99134.81;5049895;28;20021;-73
2024/02/10 09:32:00;;;;;;;0.88;0.88;;;;;;;-3.62;75.71;99148.34;5050235;28;20115;-71
2024/02/10 09:34:27;;;;;;;1.48;1.40;;;;;;;-3.57;75.64;99144.28;5067978;28;20047;-70
2024/02/10 09:36:53;;;;;;;0.63;0.63;;;;;;;-3.57;75.53;99144.28;5049851;28;20032;-71
2024/02/10 09:39:20;;;;;;;0.60;0.60;;;;;;;-3.41;74.91;99147.22;5049811;28;20025;-71
2024/02/10 09:41:47;;;;;;;0.60;0.60;;;;;;;-3.39;75.21;99138.88;5067490;28;20070;-71
2024/02/10 09:44:16;;;;;;;0.70;0.70;;;;;;;-3.32;75.09;99156.78;5067876;28;20020;-69
2024/02/10 09:46:44;;;;;;;2.05;1.02;;;;;;;-3.21;74.30;99149.47;5067739;28;20036;-70
2024/02/10 09:49:12;;;;;;;0.50;0.50;;;;;;;-3.16;74.05;99151.31;5067613;28;20028;-70
2024/02/10 09:51:40;;;;;;;1.10;1.10;;;;;;;-3.12;74.45;99157.31;5067734;28;20043;-70
2024/02/10 09:54:06;;;;;;;0.95;0.95;;;;;;;-2.96;73.85;99139.94;5049348;28;20108;-70
2024/02/10 09:56:33;;;;;;;0.70;0.70;;;;;;;-2.80;73.40;99142.06;5067470;28;20056;-70
2024/02/10 09:58:59;;;;;;;0.70;0.70;;;;;;;-2.76;73.50;99143.00;5049393;28;20504;-70
2024/02/10 10:01:36;;;;;;;0.65;0.65;;;;;;;-2.74;72.87;99144.78;5067510;28;20043;-70
2024/02/10 10:04:01;;;;;;;0.80;0.80;;;;;;;-2.60;73.26;99156.09;5067576;28;20155;-70
2024/02/10 10:06:27;;;;;;;0.65;0.65;;;;;;;-2.57;72.95;99157.03;5067410;28;20107;-70
2024/02/10 10:08:53;;;;;;;0.80;0.80;;;;;;;-2.49;72.34;99157.19;5049409;28;20095;-71
2024/02/10 10:11:21;;;;;;;0.80;0.80;;;;;;;-2.51;72.16;99154.63;5049225;28;20025;-70
2024/02/10 10:13:46;;;;;;;0.70;0.70;;;;;;;-2.57;71.97;99149.41;5066966;28;20670;-69
2024/02/10 10:16:12;;;;;;;0.88;0.88;;;;;;;-2.39;71.32;99153.22;5067148;28;20029;-70
2024/02/10 10:18:37;;;;;;;1.45;1.35;;;;;;;-2.49;71.64;99145.38;5067217;28;20025;-70
2024/02/10 10:21:10;;;;;;;0.60;0.60;;;;;;;-2.45;71.75;99148.84;5067223;28;20052;-70
2024/02/10 10:23:37;;;;;;;0.93;0.93;;;;;;;-2.14;70.79;99147.00;5066928;28;20021;-70
2024/02/10 10:26:03;;;;;;;0.60;0.60;;;;;;;-2.24;70.29;99152.72;5066810;28;20113;-69
2024/02/10 10:28:30;;;;;;;0.85;0.85;;;;;;;-2.12;70.68;99152.13;5066710;28;20021;-70
2024/02/10 10:30:57;;;;;;;0.70;0.70;;;;;;;-2.12;70.29;99172.47;5066542;28;20025;-69
2024/02/10 10:33:25;;;;;;;1.67;1.58;;;;;;;-2.02;69.08;99159.16;5067072;28;20021;-70
2024/02/10 10:35:52;;;;;;;0.70;0.70;;;;;;;-2.17;69.93;99146.09;5066837;28;20100;-69
2024/02/10 10:38:21;;;;;;;0.85;0.85;;;;;;;-2.21;70.30;99207.88;5066331;28;20020;-68
2024/02/10 10:40:51;;;;;;;1.80;1.67;;;;;;;-2.13;69.49;99147.88;5066899;28;20126;-69
2024/02/10 10:43:19;;;;;;;0.90;0.90;;;;;;;-2.24;70.19;99147.63;5049357;28;20024;-69
2024/02/10 10:45:45;;;;;;;1.00;1.00;;;;;;;-2.06;69.65;99142.09;5050339;28;20033;-69
2024/02/10 10:48:11;;;;;;;1.42;1.33;;;;;;;-2.10;69.99;99142.00;5068695;28;20017;-69
2024/02/10 10:50:36;;;;;;;0.60;0.60;;;;;;;-2.04;69.73;99132.81;5049596;28;20442;-69
2024/02/10 10:53:07;;;;;;;1.25;1.15;;;;;;;-1.91;69.20;99136.50;5066472;28;20449;-69
2024/02/10 10:55:42;;;;;;;0.68;0.65;;;;;;;-1.93;69.05;99150.03;5066173;28;20076;-68
2024/02/10 10:58:09;;;;;;;3.50;1.73;;;;;;;-1.92;69.44;99133.91;5066353;28;20056;-68
2024/02/10 11:00:37;;;;;;;2.65;1.30;;;;;;;-1.88;69.18;99125.50;5066474;28;20093;-68
2024/02/10 11:03:03;;;;;;;1.10;1.00;;;;;;;-1.66;68.17;99133.63;5066344;28;20051;-69
2024/02/10 11:05:36;;;;;;;1.52;1.42;;;;;;;-1.64;68.79;99144.69;5066341;28;20025;-68
2024/02/10 11:08:02;;;;;;;1.10;1.00;;;;;;;-1.45;67.27;99135.72;5066191;28;20539;-69
2024/02/10 11:10:33;;;;;;;0.70;0.70;;;;;;;-1.69;68.18;99139.50;5066204;28;20021;-68
2024/02/10 11:13:00;;;;;;;0.68;0.68;;;;;;;-1.70;68.72;99119.09;5066186;28;20024;-70
2024/02/10 11:15:26;;;;;;;0.60;0.60;;;;;;;-1.60;68.74;99126.13;5048024;28;20039;-71
2024/02/10 11:18:01;;;;;;;1.35;0.90;;;;;;;-1.54;68.47;99151.69;5048340;28;20032;-69
2024/02/10 11:20:38;;;;;;;1.20;0.82;;;;;;;-1.50;68.06;99129.69;5048268;28;20021;-69
2024/02/10 11:23:13;;;;;;;0.60;0.60;;;;;;;-1.67;68.45;99119.16;5066026;28;20025;-69
2024/02/10 11:25:40;;;;;;;0.82;0.82;;;;;;;-1.37;67.74;99148.59;5065892;28;20025;-70
2024/02/10 11:28:05;;;;;;;0.50;0.50;;;;;;;-1.25;66.84;99143.75;5065762;28;20081;-70
2024/02/10 11:30:32;;;;;;;0.63;0.63;;;;;;;-1.39;67.30;99151.13;5048063;28;20032;-69
2024/02/10 11:32:58;;;;;;;0.80;0.80;;;;;;;-1.42;67.06;99168.03;5047817;28;20025;-69